Time,TemperatureF,DewpointF,PressureIn,WindDirection,WindDirectionDegrees,WindSpeedMPH,WindSpeedGustMPH,Humidity,HourlyPrecipIn,Conditions,Clouds,dailyrainin,SoftwareType,DateUTC
2013-05-05 00:01:00,64.0,-99.9,-100.00,NE,53,25.0,31.0,-999,-99.99,,,-99.99,,2013-05-05 07:01:00,
2013-05-05 00:11:00,64.0,-99.9,-100.00,NE,53,25.0,31.0,-999,-99.99,,,-99.99,,2013-05-05 07:11:00,
2013-05-05 01:03:00,64.0,-99.9,-100.00,ENE,58,27.0,31.0,-999,-99.99,,,-99.99,,2013-05-05 08:03:00,
2013-05-05 02:01:00,60.0,-99.9,-100.00,NE,44,16.0,25.0,-999,-99.99,,,-99.99,,2013-05-05 09:01:00,
2013-05-05 02:11:00,60.0,-99.9,-100.00,NE,44,16.0,25.0,-999,-99.99,,,-99.99,,2013-05-05 09:11:00,
2013-05-05 04:02:00,56.0,-99.9,-100.00,NNE,22,20.0,24.0,-999,-99.99,,,-99.99,,2013-05-05 11:02:00,
2013-05-05 04:12:00,56.0,-99.9,-100.00,NNE,22,20.0,24.0,-999,-99.99,,,-99.99,,2013-05-05 11:12:00,
2013-05-05 05:02:00,58.0,-99.9,-100.00,NNE,20,24.0,32.0,-999,-99.99,,,-99.99,,2013-05-05 12:02:00,
2013-05-05 05:12:00,58.0,-99.9,-100.00,NNE,20,24.0,32.0,-999,-99.99,,,-99.99,,2013-05-05 12:12:00,
2013-05-05 06:02:00,56.0,-99.9,-100.00,NNE,27,22.0,30.0,-999,-99.99,,,-99.99,,2013-05-05 13:02:00,
2013-05-05 06:11:00,56.0,-99.9,-100.00,NNE,27,22.0,30.0,-999,-99.99,,,-99.99,,2013-05-05 13:11:00,
2013-05-05 07:02:00,56.0,-99.9,-100.00,NNE,25,24.0,29.0,-999,-99.99,,,-99.99,,2013-05-05 14:02:00,
2013-05-05 07:11:00,56.0,-99.9,-100.00,NNE,25,24.0,29.0,-999,-99.99,,,-99.99,,2013-05-05 14:11:00,
2013-05-05 08:02:00,59.0,-99.9,-100.00,NNE,20,22.0,27.0,-999,-99.99,,,-99.99,,2013-05-05 15:02:00,
2013-05-05 08:11:00,59.0,-99.9,-100.00,NNE,20,22.0,27.0,-999,-99.99,,,-99.99,,2013-05-05 15:11:00,
2013-05-05 09:03:00,63.0,-99.9,-100.00,NNE,28,23.0,35.0,-999,-99.99,,,-99.99,,2013-05-05 16:03:00,
2013-05-05 09:12:00,63.0,-99.9,-100.00,NNE,28,23.0,35.0,-999,-99.99,,,-99.99,,2013-05-05 16:12:00,
2013-05-05 11:01:00,71.0,-99.9,-100.00,NE,40,24.0,31.0,-999,-99.99,,,-99.99,,2013-05-05 18:01:00,
2013-05-05 11:12:00,71.0,-99.9,-100.00,NE,40,24.0,31.0,-999,-99.99,,,-99.99,,2013-05-05 18:12:00,
2013-05-05 13:02:00,75.0,-99.9,-100.00,NE,47,25.0,35.0,-999,-99.99,,,-99.99,,2013-05-05 20:02:00,
2013-05-05 13:11:00,75.0,-99.9,-100.00,NE,47,25.0,35.0,-999,-99.99,,,-99.99,,2013-05-05 20:11:00,
2013-05-05 14:02:00,78.0,-99.9,-100.00,NE,37,20.0,36.0,-999,-99.99,,,-99.99,,2013-05-05 21:02:00,
2013-05-05 14:11:00,78.0,-99.9,-100.00,NE,37,20.0,36.0,-999,-99.99,,,-99.99,,2013-05-05 21:11:00,
2013-05-05 15:03:00,79.0,-99.9,-100.00,NNE,32,16.0,30.0,-999,-99.99,,,-99.99,,2013-05-05 22:03:00,
2013-05-05 15:12:00,79.0,-99.9,-100.00,NNE,32,16.0,30.0,-999,-99.99,,,-99.99,,2013-05-05 22:12:00,
2013-05-05 16:02:00,81.0,-99.9,-100.00,NE,51,16.0,27.0,-999,-99.99,,,-99.99,,2013-05-05 23:02:00,
2013-05-05 16:12:00,81.0,-99.9,-100.00,NE,51,16.0,27.0,-999,-99.99,,,-99.99,,2013-05-05 23:12:00,
2013-05-05 17:01:00,81.0,-99.9,-100.00,NNE,30,22.0,35.0,-999,-99.99,,,-99.99,,2013-05-06 00:01:00,
2013-05-05 17:11:00,81.0,-99.9,-100.00,NNE,30,22.0,35.0,-999,-99.99,,,-99.99,,2013-05-06 00:11:00,
2013-05-05 18:01:00,81.0,-99.9,-100.00,NE,44,20.0,30.0,-999,-99.99,,,-99.99,,2013-05-06 01:01:00,
2013-05-05 18:11:00,81.0,-99.9,-100.00,NE,44,20.0,30.0,-999,-99.99,,,-99.99,,2013-05-06 01:11:00,
2013-05-05 19:02:00,81.0,-99.9,-100.00,NE,37,15.0,25.0,-999,-99.99,,,-99.99,,2013-05-06 02:02:00,
2013-05-05 19:12:00,81.0,-99.9,-100.00,NE,37,15.0,25.0,-999,-99.99,,,-99.99,,2013-05-06 02:12:00,
2013-05-05 23:02:00,71.0,-99.9,-100.00,NNE,31,15.0,20.0,-999,-99.99,,,-99.99,,2013-05-06 06:02:00,